To NAV CANADA Home Page Login to a new session Search on AWWS site Feedback and Comments Disclaimer Vers la page française équivalente Tips FAQ What's new on the site To the Forecasts and Observations / NOTAM section To "File a Flight Plan" website Publications and other links Update of the User's profile FIC Telephone Numbers My Weather Data Folder Route Weather Data Regional Weather Data Local Weather Data To the Forecasts and Observations / NOTAM section
Request Generated 08/22/2017 at 01:34:38 UTC . Weather information available at that time is displayed.

METAR/TAF

DAWSON CITY/YT    

METAR CYDA 220100Z 04004KT 010V070 20SM FEW025 OVC049 14/10 A2976 RMK
CU1SC7 SLP092 DENSITY ALT 1600FT=
METAR CYDA 220000Z 00000KT 20SM FEW025 BKN037 OVC090 14/10 A2976 RMK
CU1SC6AS1 SLP091 DENSITY ALT 1600FT=
METAR CYDA 212300Z VRB02KT 20SM FEW020 BKN044 OVC090 14/11 A2977 RMK
CU2SC5AS1 SLP093 DENSITY ALT 1500FT=

TAF CYDA 212338Z 2200/2203 VRB03KT P6SM BKN050 OVC090 TEMPO 2200/2203
P6SM -SHRA OVC050
RMK NXT FCST WILL BE ISSUED AT 221445Z=
Your time UTC time
Weather data provided by Environment Canada and NAV CANADA